sensor_id;sensor_type;location;lat;lon;timestamp;pressure;altitude;pressure_sealevel;temperature;humidity
49645;BME280;36494;50.730;-1.932;2022-07-18T00:01:11;101566.54;;;20.68;57.21
49645;BME280;36494;50.730;-1.932;2022-07-18T00:03:37;101567.02;;;20.70;58.22
49645;BME280;36494;50.730;-1.932;2022-07-18T00:06:02;101572.90;;;20.74;58.81
49645;BME280;36494;50.730;-1.932;2022-07-18T00:08:27;101570.83;;;20.76;60.00
49645;BME280;36494;50.730;-1.932;2022-07-18T00:10:53;101567.68;;;20.81;60.25
49645;BME280;36494;50.730;-1.932;2022-07-18T00:13:18;101564.98;;;20.81;60.86
49645;BME280;36494;50.730;-1.932;2022-07-18T00:15:43;101561.76;;;20.82;61.75
49645;BME280;36494;50.730;-1.932;2022-07-18T00:18:08;101558.63;;;20.85;63.26
49645;BME280;36494;50.730;-1.932;2022-07-18T00:20:34;101556.46;;;20.87;63.31
49645;BME280;36494;50.730;-1.932;2022-07-18T00:22:59;101554.35;;;20.87;64.55
49645;BME280;36494;50.730;-1.932;2022-07-18T00:25:25;101556.73;;;20.89;66.08
49645;BME280;36494;50.730;-1.932;2022-07-18T00:27:50;101556.68;;;20.90;67.78
49645;BME280;36494;50.730;-1.932;2022-07-18T00:30:16;101556.86;;;20.90;70.88
49645;BME280;36494;50.730;-1.932;2022-07-18T00:32:41;101558.91;;;20.90;70.54
49645;BME280;36494;50.730;-1.932;2022-07-18T00:35:07;101560.00;;;20.91;73.83
49645;BME280;36494;50.730;-1.932;2022-07-18T00:37:32;101562.06;;;20.89;75.78
49645;BME280;36494;50.730;-1.932;2022-07-18T00:39:57;101560.46;;;20.88;75.31
49645;BME280;36494;50.730;-1.932;2022-07-18T00:42:22;101561.43;;;20.85;76.32
49645;BME280;36494;50.730;-1.932;2022-07-18T00:44:52;101563.50;;;20.82;76.58
49645;BME280;36494;50.730;-1.932;2022-07-18T00:47:13;101567.62;;;20.79;79.10
49645;BME280;36494;50.730;-1.932;2022-07-18T00:49:39;101564.93;;;20.75;78.82
49645;BME280;36494;50.730;-1.932;2022-07-18T00:52:04;101566.31;;;20.71;80.56
49645;BME280;36494;50.730;-1.932;2022-07-18T00:54:30;101569.15;;;20.65;81.93
49645;BME280;36494;50.730;-1.932;2022-07-18T00:56:55;101568.61;;;20.61;80.65
49645;BME280;36494;50.730;-1.932;2022-07-18T00:59:21;101568.28;;;20.57;83.46
49645;BME280;36494;50.730;-1.932;2022-07-18T01:01:46;101566.73;;;20.51;82.82
49645;BME280;36494;50.730;-1.932;2022-07-18T01:04:15;101566.03;;;20.48;84.63
49645;BME280;36494;50.730;-1.932;2022-07-18T01:06:38;101567.48;;;20.42;85.83
49645;BME280;36494;50.730;-1.932;2022-07-18T01:09:03;101568.00;;;20.38;86.96
49645;BME280;36494;50.730;-1.932;2022-07-18T01:11:28;101566.23;;;20.37;87.08
49645;BME280;36494;50.730;-1.932;2022-07-18T01:13:54;101565.18;;;20.33;88.98
49645;BME280;36494;50.730;-1.932;2022-07-18T01:16:19;101565.47;;;20.28;88.23
49645;BME280;36494;50.730;-1.932;2022-07-18T01:18:45;101568.69;;;20.24;88.79
49645;BME280;36494;50.730;-1.932;2022-07-18T01:21:10;101567.44;;;20.20;89.12
49645;BME280;36494;50.730;-1.932;2022-07-18T01:23:36;101565.13;;;20.16;88.98
49645;BME280;36494;50.730;-1.932;2022-07-18T01:26:02;101566.10;;;20.11;89.15
49645;BME280;36494;50.730;-1.932;2022-07-18T01:28:27;101561.25;;;20.07;88.48
49645;BME280;36494;50.730;-1.932;2022-07-18T01:30:52;101561.13;;;20.02;88.69
49645;BME280;36494;50.730;-1.932;2022-07-18T01:33:18;101561.07;;;19.97;87.72
49645;BME280;36494;50.730;-1.932;2022-07-18T01:35:43;101562.32;;;19.93;86.40
49645;BME280;36494;50.730;-1.932;2022-07-18T01:38:08;101557.71;;;19.87;84.09
49645;BME280;36494;50.730;-1.932;2022-07-18T01:40:34;101553.35;;;19.84;81.77
49645;BME280;36494;50.730;-1.932;2022-07-18T01:42:59;101556.23;;;19.80;81.13
49645;BME280;36494;50.730;-1.932;2022-07-18T01:45:24;101552.57;;;19.76;80.57
49645;BME280;36494;50.730;-1.932;2022-07-18T01:47:49;101556.06;;;19.72;81.16
49645;BME280;36494;50.730;-1.932;2022-07-18T01:50:15;101560.62;;;19.68;81.74
49645;BME280;36494;50.730;-1.932;2022-07-18T01:52:40;101556.71;;;19.64;80.30
49645;BME280;36494;50.730;-1.932;2022-07-18T01:55:08;101549.85;;;19.60;79.20
49645;BME280;36494;50.730;-1.932;2022-07-18T01:57:33;101545.50;;;19.55;79.02
49645;BME280;36494;50.730;-1.932;2022-07-18T01:59:57;101544.58;;;19.50;78.65
49645;BME280;36494;50.730;-1.932;2022-07-18T02:02:22;101546.43;;;19.45;78.68
49645;BME280;36494;50.730;-1.932;2022-07-18T02:04:47;101542.73;;;19.39;79.54
49645;BME280;36494;50.730;-1.932;2022-07-18T02:07:13;101538.00;;;19.36;78.68
49645;BME280;36494;50.730;-1.932;2022-07-18T02:09:38;101535.75;;;19.29;79.53
49645;BME280;36494;50.730;-1.932;2022-07-18T02:12:04;101536.47;;;19.24;79.10
49645;BME280;36494;50.730;-1.932;2022-07-18T02:14:29;101536.05;;;19.21;78.52
49645;BME280;36494;50.730;-1.932;2022-07-18T02:16:54;101534.90;;;19.15;79.41
49645;BME280;36494;50.730;-1.932;2022-07-18T02:19:20;101533.20;;;19.12;78.92
49645;BME280;36494;50.730;-1.932;2022-07-18T02:21:45;101531.50;;;19.09;79.22
49645;BME280;36494;50.730;-1.932;2022-07-18T02:24:10;101529.07;;;19.04;79.86
49645;BME280;36494;50.730;-1.932;2022-07-18T02:26:36;101527.66;;;18.99;80.80
49645;BME280;36494;50.730;-1.932;2022-07-18T02:29:01;101527.71;;;18.93;81.44
49645;BME280;36494;50.730;-1.932;2022-07-18T02:31:26;101528.43;;;18.91;81.60
49645;BME280;36494;50.730;-1.932;2022-07-18T02:33:52;101522.90;;;18.86;81.59
49645;BME280;36494;50.730;-1.932;2022-07-18T02:36:18;101519.45;;;18.81;82.79
49645;BME280;36494;50.730;-1.932;2022-07-18T02:38:43;101517.02;;;18.78;82.06
49645;BME280;36494;50.730;-1.932;2022-07-18T02:41:08;101512.52;;;18.74;82.61
49645;BME280;36494;50.730;-1.932;2022-07-18T02:43:34;101509.04;;;18.71;83.88
49645;BME280;36494;50.730;-1.932;2022-07-18T02:45:59;101504.98;;;18.66;84.39
49645;BME280;36494;50.730;-1.932;2022-07-18T02:48:25;101503.51;;;18.63;84.95
49645;BME280;36494;50.730;-1.932;2022-07-18T02:50:50;101502.79;;;18.60;84.86
49645;BME280;36494;50.730;-1.932;2022-07-18T02:53:15;101500.69;;;18.58;84.18
49645;BME280;36494;50.730;-1.932;2022-07-18T02:55:41;101500.30;;;18.55;84.41
49645;BME280;36494;50.730;-1.932;2022-07-18T02:58:06;101500.07;;;18.52;84.96
49645;BME280;36494;50.730;-1.932;2022-07-18T03:00:31;101498.15;;;18.49;84.81
49645;BME280;36494;50.730;-1.932;2022-07-18T03:02:57;101494.32;;;18.45;85.75
49645;BME280;36494;50.730;-1.932;2022-07-18T03:05:22;101494.48;;;18.42;86.32
49645;BME280;36494;50.730;-1.932;2022-07-18T03:07:48;101494.65;;;18.37;87.71
49645;BME280;36494;50.730;-1.932;2022-07-18T03:10:14;101496.52;;;18.34;87.29
49645;BME280;36494;50.730;-1.932;2022-07-18T03:12:40;101498.16;;;18.31;87.88
49645;BME280;36494;50.730;-1.932;2022-07-18T03:15:05;101497.48;;;18.28;88.76
49645;BME280;36494;50.730;-1.932;2022-07-18T03:17:30;101498.42;;;18.25;89.40
49645;BME280;36494;50.730;-1.932;2022-07-18T03:19:56;101495.72;;;18.21;90.05
49645;BME280;36494;50.730;-1.932;2022-07-18T03:22:21;101495.02;;;18.17;90.18
49645;BME280;36494;50.730;-1.932;2022-07-18T03:24:46;101496.75;;;18.14;91.25
49645;BME280;36494;50.730;-1.932;2022-07-18T03:27:12;101495.73;;;18.11;91.49
49645;BME280;36494;50.730;-1.932;2022-07-18T03:29:37;101493.56;;;18.08;92.83
49645;BME280;36494;50.730;-1.932;2022-07-18T03:32:03;101488.64;;;18.04;94.15
49645;BME280;36494;50.730;-1.932;2022-07-18T03:34:28;101488.77;;;18.01;94.27
49645;BME280;36494;50.730;-1.932;2022-07-18T03:36:53;101492.91;;;17.97;94.75
49645;BME280;36494;50.730;-1.932;2022-07-18T03:39:18;101493.65;;;17.94;95.41
49645;BME280;36494;50.730;-1.932;2022-07-18T03:41:44;101492.55;;;17.93;95.82
49645;BME280;36494;50.730;-1.932;2022-07-18T03:44:09;101493.63;;;17.89;97.76
49645;BME280;36494;50.730;-1.932;2022-07-18T03:46:35;101492.77;;;17.85;98.97
49645;BME280;36494;50.730;-1.932;2022-07-18T03:49:00;101494.88;;;17.82;98.61
49645;BME280;36494;50.730;-1.932;2022-07-18T03:51:26;101492.69;;;17.81;100.00
49645;BME280;36494;50.730;-1.932;2022-07-18T03:53:51;101488.84;;;17.80;99.08
49645;BME280;36494;50.730;-1.932;2022-07-18T03:56:17;101482.37;;;17.76;99.92
49645;BME280;36494;50.730;-1.932;2022-07-18T03:58:42;101481.10;;;17.73;100.00
49645;BME280;36494;50.730;-1.932;2022-07-18T04:01:08;101476.39;;;17.70;100.00
49645;BME280;36494;50.730;-1.932;2022-07-18T04:03:33;101477.34;;;17.67;100.00
49645;BME280;36494;50.730;-1.932;2022-07-18T04:05:59;101475.21;;;17.64;100.00
49645;BME280;36494;50.730;-1.932;2022-07-18T04:08:24;101477.58;;;17.63;100.00
49645;BME280;36494;50.730;-1.932;2022-07-18T04:10:50;101474.39;;;17.60;100.00
49645;BME280;36494;50.730;-1.932;2022-07-18T04:13:15;101475.79;;;17.56;100.00
49645;BME280;36494;50.730;-1.932;2022-07-18T04:15:41;101475.75;;;17.54;100.00
49645;BME280;36494;50.730;-1.932;2022-07-18T04:18:07;101478.48;;;17.51;100.00
49645;BME280;36494;50.730;-1.932;2022-07-18T04:20:32;101479.18;;;17.48;100.00
49645;BME280;36494;50.730;-1.932;2022-07-18T04:22:58;101480.52;;;17.47;100.00
49645;BME280;36494;50.730;-1.932;2022-07-18T04:25:25;101479.31;;;17.44;100.00
49645;BME280;36494;50.730;-1.932;2022-07-18T04:27:48;101479.08;;;17.42;100.00
49645;BME280;36494;50.730;-1.932;2022-07-18T04:30:13;101480.71;;;17.39;100.00
49645;BME280;36494;50.730;-1.932;2022-07-18T04:32:38;101478.42;;;17.38;100.00
49645;BME280;36494;50.730;-1.932;2022-07-18T04:35:04;101476.72;;;17.36;100.00
49645;BME280;36494;50.730;-1.932;2022-07-18T04:37:29;101471.95;;;17.36;100.00
49645;BME280;36494;50.730;-1.932;2022-07-18T04:39:54;101472.50;;;17.35;100.00
49645;BME280;36494;50.730;-1.932;2022-07-18T04:42:19;101473.90;;;17.35;100.00
49645;BME280;36494;50.730;-1.932;2022-07-18T04:44:45;101471.47;;;17.33;100.00
49645;BME280;36494;50.730;-1.932;2022-07-18T04:47:10;101471.18;;;17.32;100.00
49645;BME280;36494;50.730;-1.932;2022-07-18T04:49:35;101473.32;;;17.33;100.00
49645;BME280;36494;50.730;-1.932;2022-07-18T04:52:01;101475.14;;;17.32;100.00
49645;BME280;36494;50.730;-1.932;2022-07-18T04:54:26;101474.15;;;17.32;100.00
49645;BME280;36494;50.730;-1.932;2022-07-18T04:56:51;101471.30;;;17.33;100.00
49645;BME280;36494;50.730;-1.932;2022-07-18T04:59:17;101471.57;;;17.33;100.00
49645;BME280;36494;50.730;-1.932;2022-07-18T05:01:42;101475.65;;;17.33;100.00
49645;BME280;36494;50.730;-1.932;2022-07-18T05:04:07;101477.43;;;17.36;100.00
49645;BME280;36494;50.730;-1.932;2022-07-18T05:06:33;101476.85;;;17.37;100.00
49645;BME280;36494;50.730;-1.932;2022-07-18T05:08:58;101474.31;;;17.39;100.00
49645;BME280;36494;50.730;-1.932;2022-07-18T05:11:23;101472.91;;;17.42;100.00
49645;BME280;36494;50.730;-1.932;2022-07-18T05:13:48;101477.89;;;17.44;100.00
49645;BME280;36494;50.730;-1.932;2022-07-18T05:16:14;101478.02;;;17.47;100.00
49645;BME280;36494;50.730;-1.932;2022-07-18T05:18:39;101472.19;;;17.52;100.00
49645;BME280;36494;50.730;-1.932;2022-07-18T05:21:04;101466.14;;;17.56;100.00
49645;BME280;36494;50.730;-1.932;2022-07-18T05:23:30;101466.04;;;17.61;100.00
49645;BME280;36494;50.730;-1.932;2022-07-18T05:25:55;101471.55;;;17.67;100.00
49645;BME280;36494;50.730;-1.932;2022-07-18T05:28:20;101470.60;;;17.72;100.00
49645;BME280;36494;50.730;-1.932;2022-07-18T05:30:46;101469.89;;;17.79;100.00
49645;BME280;36494;50.730;-1.932;2022-07-18T05:33:11;101469.18;;;17.86;100.00
49645;BME280;36494;50.730;-1.932;2022-07-18T05:35:37;101466.44;;;17.95;100.00
49645;BME280;36494;50.730;-1.932;2022-07-18T05:38:02;101468.59;;;18.05;100.00
49645;BME280;36494;50.730;-1.932;2022-07-18T05:40:28;101468.47;;;18.16;100.00
49645;BME280;36494;50.730;-1.932;2022-07-18T05:42:53;101465.95;;;18.22;100.00
49645;BME280;36494;50.730;-1.932;2022-07-18T05:45:19;101464.82;;;18.28;100.00
49645;BME280;36494;50.730;-1.932;2022-07-18T05:47:44;101466.70;;;18.45;100.00
49645;BME280;36494;50.730;-1.932;2022-07-18T05:50:09;101466.68;;;18.53;100.00
49645;BME280;36494;50.730;-1.932;2022-07-18T05:52:36;101465.02;;;18.64;100.00
49645;BME280;36494;50.730;-1.932;2022-07-18T05:54:59;101467.36;;;18.71;100.00
49645;BME280;36494;50.730;-1.932;2022-07-18T05:57:25;101462.86;;;18.79;100.00
49645;BME280;36494;50.730;-1.932;2022-07-18T05:59:50;101462.60;;;18.90;100.00
49645;BME280;36494;50.730;-1.932;2022-07-18T06:02:15;101463.63;;;18.99;100.00
49645;BME280;36494;50.730;-1.932;2022-07-18T06:04:41;101466.34;;;19.03;100.00
49645;BME280;36494;50.730;-1.932;2022-07-18T06:07:06;101466.76;;;19.13;100.00
49645;BME280;36494;50.730;-1.932;2022-07-18T06:09:32;101462.73;;;19.20;100.00
49645;BME280;36494;50.730;-1.932;2022-07-18T06:11:58;101464.86;;;19.26;100.00
49645;BME280;36494;50.730;-1.932;2022-07-18T06:14:22;101462.94;;;19.31;100.00
49645;BME280;36494;50.730;-1.932;2022-07-18T06:16:48;101460.92;;;19.38;100.00
49645;BME280;36494;50.730;-1.932;2022-07-18T06:19:13;101459.01;;;19.45;100.00
49645;BME280;36494;50.730;-1.932;2022-07-18T06:21:39;101463.10;;;19.53;100.00
49645;BME280;36494;50.730;-1.932;2022-07-18T06:24:05;101465.23;;;19.57;100.00
49645;BME280;36494;50.730;-1.932;2022-07-18T06:26:30;101466.24;;;19.64;100.00
49645;BME280;36494;50.730;-1.932;2022-07-18T06:28:55;101466.95;;;19.69;100.00
49645;BME280;36494;50.730;-1.932;2022-07-18T06:31:20;101467.22;;;19.77;100.00
49645;BME280;36494;50.730;-1.932;2022-07-18T06:33:46;101471.78;;;19.83;100.00
49645;BME280;36494;50.730;-1.932;2022-07-18T06:36:11;101476.75;;;19.90;100.00
49645;BME280;36494;50.730;-1.932;2022-07-18T06:38:37;101481.12;;;19.98;100.00
49645;BME280;36494;50.730;-1.932;2022-07-18T06:41:02;101477.44;;;20.10;100.00
49645;BME280;36494;50.730;-1.932;2022-07-18T06:43:28;101476.21;;;20.22;100.00
49645;BME280;36494;50.730;-1.932;2022-07-18T06:45:52;101479.91;;;20.37;100.00
49645;BME280;36494;50.730;-1.932;2022-07-18T06:48:18;101479.61;;;20.46;100.00
49645;BME280;36494;50.730;-1.932;2022-07-18T06:50:43;101482.92;;;20.56;100.00
49645;BME280;36494;50.730;-1.932;2022-07-18T06:53:09;101487.13;;;20.69;100.00
49645;BME280;36494;50.730;-1.932;2022-07-18T06:55:35;101492.04;;;20.77;100.00
49645;BME280;36494;50.730;-1.932;2022-07-18T06:58:00;101492.14;;;20.87;100.00
49645;BME280;36494;50.730;-1.932;2022-07-18T07:00:26;101490.09;;;20.96;100.00
49645;BME280;36494;50.730;-1.932;2022-07-18T07:02:51;101490.46;;;21.03;100.00
49645;BME280;36494;50.730;-1.932;2022-07-18T07:05:18;101493.27;;;21.13;100.00
49645;BME280;36494;50.730;-1.932;2022-07-18T07:07:42;101494.86;;;21.19;100.00
49645;BME280;36494;50.730;-1.932;2022-07-18T07:10:08;101491.71;;;21.25;100.00
49645;BME280;36494;50.730;-1.932;2022-07-18T07:12:38;101490.54;;;21.32;100.00
49645;BME280;36494;50.730;-1.932;2022-07-18T07:14:58;101494.27;;;21.36;100.00
49645;BME280;36494;50.730;-1.932;2022-07-18T07:17:23;101491.69;;;21.39;100.00
49645;BME280;36494;50.730;-1.932;2022-07-18T07:19:48;101492.37;;;21.46;100.00
49645;BME280;36494;50.730;-1.932;2022-07-18T07:22:14;101491.91;;;21.50;100.00
49645;BME280;36494;50.730;-1.932;2022-07-18T07:24:39;101491.34;;;21.56;100.00
49645;BME280;36494;50.730;-1.932;2022-07-18T07:27:04;101491.83;;;21.63;100.00
49645;BME280;36494;50.730;-1.932;2022-07-18T07:29:30;101491.96;;;21.73;100.00
49645;BME280;36494;50.730;-1.932;2022-07-18T07:31:55;101489.61;;;21.78;100.00
49645;BME280;36494;50.730;-1.932;2022-07-18T07:34:21;101488.37;;;21.91;100.00
49645;BME280;36494;50.730;-1.932;2022-07-18T07:36:46;101486.93;;;22.01;100.00
49645;BME280;36494;50.730;-1.932;2022-07-18T07:39:11;101488.63;;;22.06;100.00
49645;BME280;36494;50.730;-1.932;2022-07-18T07:41:37;101487.83;;;22.12;100.00
49645;BME280;36494;50.730;-1.932;2022-07-18T07:44:03;101484.02;;;22.20;100.00
49645;BME280;36494;50.730;-1.932;2022-07-18T07:46:28;101477.79;;;22.29;100.00
49645;BME280;36494;50.730;-1.932;2022-07-18T07:48:53;101479.34;;;22.41;100.00
49645;BME280;36494;50.730;-1.932;2022-07-18T07:51:18;101477.51;;;22.56;100.00
49645;BME280;36494;50.730;-1.932;2022-07-18T07:53:45;101476.74;;;22.62;100.00
49645;BME280;36494;50.730;-1.932;2022-07-18T07:56:10;101472.56;;;22.74;100.00
49645;BME280;36494;50.730;-1.932;2022-07-18T07:58:35;101472.51;;;22.89;100.00
49645;BME280;36494;50.730;-1.932;2022-07-18T08:01:01;101472.66;;;23.00;99.67
49645;BME280;36494;50.730;-1.932;2022-07-18T08:03:27;101473.54;;;23.14;100.00
49645;BME280;36494;50.730;-1.932;2022-07-18T08:05:52;101468.57;;;23.12;98.54
49645;BME280;36494;50.730;-1.932;2022-07-18T08:08:18;101466.43;;;23.19;100.00
49645;BME280;36494;50.730;-1.932;2022-07-18T08:10:43;101465.24;;;23.26;100.00
49645;BME280;36494;50.730;-1.932;2022-07-18T08:13:08;101466.32;;;23.35;100.00
49645;BME280;36494;50.730;-1.932;2022-07-18T08:15:34;101466.29;;;23.43;99.93
49645;BME280;36494;50.730;-1.932;2022-07-18T08:17:58;101469.01;;;23.49;93.63
49645;BME280;36494;50.730;-1.932;2022-07-18T08:20:24;101469.80;;;23.38;93.74
49645;BME280;36494;50.730;-1.932;2022-07-18T08:22:55;101471.03;;;23.37;89.57
49645;BME280;36494;50.730;-1.932;2022-07-18T08:25:14;101471.02;;;23.39;93.71
49645;BME280;36494;50.730;-1.932;2022-07-18T08:27:40;101466.74;;;23.50;91.18
49645;BME280;36494;50.730;-1.932;2022-07-18T08:30:06;101464.59;;;23.53;89.03
49645;BME280;36494;50.730;-1.932;2022-07-18T08:32:30;101465.16;;;23.62;90.63
49645;BME280;36494;50.730;-1.932;2022-07-18T08:34:56;101463.99;;;23.62;88.47
49645;BME280;36494;50.730;-1.932;2022-07-18T08:37:21;101466.86;;;23.60;88.88
49645;BME280;36494;50.730;-1.932;2022-07-18T08:39:46;101465.56;;;23.62;90.04
49645;BME280;36494;50.730;-1.932;2022-07-18T08:42:12;101463.84;;;23.69;93.29
49645;BME280;36494;50.730;-1.932;2022-07-18T08:44:38;101467.82;;;23.73;89.70
49645;BME280;36494;50.730;-1.932;2022-07-18T08:47:03;101465.33;;;23.72;88.17
49645;BME280;36494;50.730;-1.932;2022-07-18T08:49:27;101459.66;;;23.73;89.52
49645;BME280;36494;50.730;-1.932;2022-07-18T08:51:53;101460.51;;;23.68;86.97
49645;BME280;36494;50.730;-1.932;2022-07-18T08:54:18;101459.34;;;23.69;86.91
49645;BME280;36494;50.730;-1.932;2022-07-18T08:56:43;101460.22;;;23.55;80.77
49645;BME280;36494;50.730;-1.932;2022-07-18T08:59:09;101460.44;;;23.59;83.03
49645;BME280;36494;50.730;-1.932;2022-07-18T09:01:35;101456.52;;;23.69;80.62
49645;BME280;36494;50.730;-1.932;2022-07-18T09:04:00;101454.52;;;23.84;80.96
49645;BME280;36494;50.730;-1.932;2022-07-18T09:06:25;101450.80;;;23.87;77.34
49645;BME280;36494;50.730;-1.932;2022-07-18T09:08:58;101453.29;;;23.95;78.03
49645;BME280;36494;50.730;-1.932;2022-07-18T09:11:16;101452.39;;;24.01;75.29
49645;BME280;36494;50.730;-1.932;2022-07-18T09:13:41;101450.37;;;24.16;77.30
49645;BME280;36494;50.730;-1.932;2022-07-18T09:16:09;101450.45;;;24.35;79.47
49645;BME280;36494;50.730;-1.932;2022-07-18T09:18:33;101444.81;;;24.52;74.31
49645;BME280;36494;50.730;-1.932;2022-07-18T09:20:58;101445.51;;;24.50;71.58
49645;BME280;36494;50.730;-1.932;2022-07-18T09:23:27;101447.22;;;24.60;69.65
49645;BME280;36494;50.730;-1.932;2022-07-18T09:25:47;101445.74;;;24.73;71.43
49645;BME280;36494;50.730;-1.932;2022-07-18T09:28:13;101444.50;;;24.84;70.05
49645;BME280;36494;50.730;-1.932;2022-07-18T09:30:38;101445.00;;;25.00;69.17
49645;BME280;36494;50.730;-1.932;2022-07-18T09:33:06;101443.72;;;25.12;64.29
49645;BME280;36494;50.730;-1.932;2022-07-18T09:35:31;101442.79;;;25.24;66.27
49645;BME280;36494;50.730;-1.932;2022-07-18T09:37:56;101442.69;;;25.20;64.67
49645;BME280;36494;50.730;-1.932;2022-07-18T09:40:21;101442.57;;;25.34;62.85
49645;BME280;36494;50.730;-1.932;2022-07-18T09:42:48;101442.01;;;25.33;62.36
49645;BME280;36494;50.730;-1.932;2022-07-18T09:45:09;101440.75;;;25.48;62.59
49645;BME280;36494;50.730;-1.932;2022-07-18T09:47:49;101438.32;;;25.56;60.76
49645;BME280;36494;50.730;-1.932;2022-07-18T09:50:00;101439.11;;;25.50;60.14
49645;BME280;36494;50.730;-1.932;2022-07-18T09:52:25;101442.01;;;25.68;63.74
49645;BME280;36494;50.730;-1.932;2022-07-18T09:54:51;101441.79;;;25.94;62.24
49645;BME280;36494;50.730;-1.932;2022-07-18T09:57:22;101439.01;;;25.92;60.57
49645;BME280;36494;50.730;-1.932;2022-07-18T09:59:41;101439.69;;;26.19;61.45
49645;BME280;36494;50.730;-1.932;2022-07-18T10:02:07;101436.21;;;26.29;60.20
49645;BME280;36494;50.730;-1.932;2022-07-18T10:04:32;101433.09;;;26.43;60.73
49645;BME280;36494;50.730;-1.932;2022-07-18T10:06:58;101433.97;;;26.65;60.24
49645;BME280;36494;50.730;-1.932;2022-07-18T10:09:23;101428.97;;;26.54;57.25
49645;BME280;36494;50.730;-1.932;2022-07-18T10:11:48;101431.33;;;26.81;58.09
49645;BME280;36494;50.730;-1.932;2022-07-18T10:14:13;101432.76;;;27.07;59.42
49645;BME280;36494;50.730;-1.932;2022-07-18T10:16:40;101434.07;;;27.16;56.20
49645;BME280;36494;50.730;-1.932;2022-07-18T10:19:04;101435.88;;;26.99;55.02
49645;BME280;36494;50.730;-1.932;2022-07-18T10:21:30;101437.36;;;27.27;54.71
49645;BME280;36494;50.730;-1.932;2022-07-18T10:23:55;101435.26;;;27.29;56.31
49645;BME280;36494;50.730;-1.932;2022-07-18T10:26:21;101427.65;;;27.64;56.85
49645;BME280;36494;50.730;-1.932;2022-07-18T10:31:13;101424.50;;;27.94;54.45
49645;BME280;36494;50.730;-1.932;2022-07-18T10:33:39;101425.30;;;27.91;50.83
49645;BME280;36494;50.730;-1.932;2022-07-18T10:36:03;101425.53;;;27.98;49.61
49645;BME280;36494;50.730;-1.932;2022-07-18T10:38:26;101431.15;;;27.72;51.27
49645;BME280;36494;50.730;-1.932;2022-07-18T10:41:03;101434.79;;;27.43;50.55
49645;BME280;36494;50.730;-1.932;2022-07-18T10:43:34;101436.06;;;27.48;50.21
49645;BME280;36494;50.730;-1.932;2022-07-18T10:45:43;101434.19;;;27.14;50.76
49645;BME280;36494;50.730;-1.932;2022-07-18T10:52:59;101439.23;;;27.15;52.59
49645;BME280;36494;50.730;-1.932;2022-07-18T10:55:28;101440.95;;;27.19;50.91
49645;BME280;36494;50.730;-1.932;2022-07-18T11:00:15;101443.53;;;27.14;50.23
49645;BME280;36494;50.730;-1.932;2022-07-18T11:02:40;101443.31;;;27.02;51.42
49645;BME280;36494;50.730;-1.932;2022-07-18T11:07:29;101440.65;;;26.85;52.46
49645;BME280;36494;50.730;-1.932;2022-07-18T11:09:55;101443.43;;;26.87;51.00
49645;BME280;36494;50.730;-1.932;2022-07-18T11:12:22;101440.14;;;26.41;53.62
49645;BME280;36494;50.730;-1.932;2022-07-18T11:14:59;101439.85;;;26.85;52.61
49645;BME280;36494;50.730;-1.932;2022-07-18T11:17:10;101435.34;;;26.98;51.59
49645;BME280;36494;50.730;-1.932;2022-07-18T11:19:36;101434.65;;;27.34;51.26
49645;BME280;36494;50.730;-1.932;2022-07-18T11:22:01;101433.95;;;27.28;49.90
49645;BME280;36494;50.730;-1.932;2022-07-18T11:24:27;101438.50;;;27.14;50.60
49645;BME280;36494;50.730;-1.932;2022-07-18T11:26:51;101436.18;;;27.35;49.87
49645;BME280;36494;50.730;-1.932;2022-07-18T11:29:18;101435.46;;;27.54;48.88
49645;BME280;36494;50.730;-1.932;2022-07-18T11:31:44;101429.13;;;27.94;48.63
49645;BME280;36494;50.730;-1.932;2022-07-18T11:34:07;101428.20;;;28.13;50.82
49645;BME280;36494;50.730;-1.932;2022-07-18T11:36:32;101429.51;;;28.37;49.43
49645;BME280;36494;50.730;-1.932;2022-07-18T11:38:59;101428.54;;;28.59;47.17
49645;BME280;36494;50.730;-1.932;2022-07-18T11:41:23;101424.00;;;28.59;47.47
49645;BME280;36494;50.730;-1.932;2022-07-18T11:43:49;101421.17;;;28.81;45.51
49645;BME280;36494;50.730;-1.932;2022-07-18T11:46:15;101414.82;;;28.67;46.22
49645;BME280;36494;50.730;-1.932;2022-07-18T11:48:41;101412.50;;;29.02;44.23
49645;BME280;36494;50.730;-1.932;2022-07-18T11:51:08;101411.21;;;29.35;43.79
49645;BME280;36494;50.730;-1.932;2022-07-18T11:53:29;101407.90;;;29.14;42.12
49645;BME280;36494;50.730;-1.932;2022-07-18T11:55:55;101404.14;;;29.33;42.47
49645;BME280;36494;50.730;-1.932;2022-07-18T11:58:20;101401.53;;;29.52;40.98
49645;BME280;36494;50.730;-1.932;2022-07-18T12:00:46;101396.64;;;29.55;41.37
49645;BME280;36494;50.730;-1.932;2022-07-18T12:03:12;101390.64;;;29.71;39.58
49645;BME280;36494;50.730;-1.932;2022-07-18T12:05:37;101391.36;;;29.71;39.45
49645;BME280;36494;50.730;-1.932;2022-07-18T12:08:01;101386.52;;;29.73;39.02
49645;BME280;36494;50.730;-1.932;2022-07-18T12:10:26;101385.71;;;30.01;38.89
49645;BME280;36494;50.730;-1.932;2022-07-18T12:12:51;101383.37;;;29.92;38.40
49645;BME280;36494;50.730;-1.932;2022-07-18T12:15:16;101379.73;;;29.86;40.44
49645;BME280;36494;50.730;-1.932;2022-07-18T12:17:44;101378.93;;;30.16;36.81
49645;BME280;36494;50.730;-1.932;2022-07-18T12:20:09;101379.37;;;30.20;36.59
49645;BME280;36494;50.730;-1.932;2022-07-18T12:22:32;101377.09;;;30.07;34.81
49645;BME280;36494;50.730;-1.932;2022-07-18T12:24:57;101376.82;;;30.04;35.99
49645;BME280;36494;50.730;-1.932;2022-07-18T12:27:23;101377.83;;;30.33;35.91
49645;BME280;36494;50.730;-1.932;2022-07-18T12:29:54;101372.38;;;30.55;35.81
49645;BME280;36494;50.730;-1.932;2022-07-18T12:32:15;101371.31;;;30.99;35.41
49645;BME280;36494;50.730;-1.932;2022-07-18T12:37:03;101365.77;;;30.90;33.61
49645;BME280;36494;50.730;-1.932;2022-07-18T12:39:30;101363.80;;;30.77;35.39